sensor_id;sensor_type;location;lat;lon;timestamp;temperature;humidity
38606;DHT22;24365;48.446;8.850;2023-02-11T00:01:10;-3.10;64.10
38606;DHT22;24365;48.446;8.850;2023-02-11T00:06:12;-3.20;64.10
38606;DHT22;24365;48.446;8.850;2023-02-11T00:11:14;-3.20;64.40
38606;DHT22;24365;48.446;8.850;2023-02-11T00:16:17;-3.20;64.20
38606;DHT22;24365;48.446;8.850;2023-02-11T00:21:21;-3.30;64.40
38606;DHT22;24365;48.446;8.850;2023-02-11T00:26:24;-3.30;64.50
38606;DHT22;24365;48.446;8.850;2023-02-11T00:31:26;-3.40;64.50
38606;DHT22;24365;48.446;8.850;2023-02-11T00:36:27;-3.50;65.10
38606;DHT22;24365;48.446;8.850;2023-02-11T00:41:28;-3.50;65.30
38606;DHT22;24365;48.446;8.850;2023-02-11T00:46:29;-3.50;65.40
38606;DHT22;24365;48.446;8.850;2023-02-11T00:51:31;-3.60;65.60
38606;DHT22;24365;48.446;8.850;2023-02-11T00:56:32;-3.50;66.00
38606;DHT22;24365;48.446;8.850;2023-02-11T01:01:33;-3.50;65.50
38606;DHT22;24365;48.446;8.850;2023-02-11T01:06:34;-3.60;65.50
38606;DHT22;24365;48.446;8.850;2023-02-11T01:11:34;-3.60;65.20
38606;DHT22;24365;48.446;8.850;2023-02-11T01:16:36;-3.60;65.10
38606;DHT22;24365;48.446;8.850;2023-02-11T01:21:37;-3.60;65.00
38606;DHT22;24365;48.446;8.850;2023-02-11T01:26:37;-3.60;64.60
38606;DHT22;24365;48.446;8.850;2023-02-11T01:31:38;-3.70;65.40
38606;DHT22;24365;48.446;8.850;2023-02-11T01:36:39;-3.70;65.40
38606;DHT22;24365;48.446;8.850;2023-02-11T01:41:40;-3.70;64.70
38606;DHT22;24365;48.446;8.850;2023-02-11T01:46:41;-3.70;65.20
38606;DHT22;24365;48.446;8.850;2023-02-11T01:51:43;-3.80;65.20
38606;DHT22;24365;48.446;8.850;2023-02-11T01:56:47;-3.80;65.40
38606;DHT22;24365;48.446;8.850;2023-02-11T02:02:09;-3.80;65.00
38606;DHT22;24365;48.446;8.850;2023-02-11T02:07:12;-3.80;65.30
38606;DHT22;24365;48.446;8.850;2023-02-11T02:12:13;-3.90;65.50
38606;DHT22;24365;48.446;8.850;2023-02-11T02:17:21;-3.90;66.30
38606;DHT22;24365;48.446;8.850;2023-02-11T02:33:23;-3.90;66.20
38606;DHT22;24365;48.446;8.850;2023-02-11T02:38:47;-3.90;66.20
38606;DHT22;24365;48.446;8.850;2023-02-11T02:43:50;-3.90;66.00
38606;DHT22;24365;48.446;8.850;2023-02-11T02:48:51;-4.00;66.10
38606;DHT22;24365;48.446;8.850;2023-02-11T02:59:27;-4.00;66.40
38606;DHT22;24365;48.446;8.850;2023-02-11T03:04:36;-4.00;66.50
38606;DHT22;24365;48.446;8.850;2023-02-11T03:09:39;-4.10;66.90
38606;DHT22;24365;48.446;8.850;2023-02-11T03:14:41;-4.10;66.80
38606;DHT22;24365;48.446;8.850;2023-02-11T03:19:44;-4.10;66.80
38606;DHT22;24365;48.446;8.850;2023-02-11T03:24:45;-4.20;67.00
38606;DHT22;24365;48.446;8.850;2023-02-11T03:30:09;-4.20;66.80
38606;DHT22;24365;48.446;8.850;2023-02-11T03:35:13;-4.20;66.70
38606;DHT22;24365;48.446;8.850;2023-02-11T03:40:18;-4.20;66.70
38606;DHT22;24365;48.446;8.850;2023-02-11T03:45:20;-4.20;66.80
38606;DHT22;24365;48.446;8.850;2023-02-11T03:50:21;-4.20;66.70
38606;DHT22;24365;48.446;8.850;2023-02-11T03:55:23;-4.10;66.80
38606;DHT22;24365;48.446;8.850;2023-02-11T04:00:29;-4.20;66.50
38606;DHT22;24365;48.446;8.850;2023-02-11T04:05:30;-4.20;66.20
38606;DHT22;24365;48.446;8.850;2023-02-11T04:10:31;-4.30;66.60
38606;DHT22;24365;48.446;8.850;2023-02-11T04:15:32;-4.30;67.00
38606;DHT22;24365;48.446;8.850;2023-02-11T04:20:32;-4.30;67.10
38606;DHT22;24365;48.446;8.850;2023-02-11T04:25:33;-4.30;66.90
38606;DHT22;24365;48.446;8.850;2023-02-11T04:30:33;-4.30;66.80
38606;DHT22;24365;48.446;8.850;2023-02-11T04:35:34;-4.30;66.80
38606;DHT22;24365;48.446;8.850;2023-02-11T04:40:35;-4.50;67.90
38606;DHT22;24365;48.446;8.850;2023-02-11T04:45:36;-4.50;68.10
38606;DHT22;24365;48.446;8.850;2023-02-11T04:50:36;-4.50;69.40
38606;DHT22;24365;48.446;8.850;2023-02-11T04:55:37;-4.40;69.30
38606;DHT22;24365;48.446;8.850;2023-02-11T05:00:37;-4.50;68.70
38606;DHT22;24365;48.446;8.850;2023-02-11T05:05:40;-4.50;69.60
38606;DHT22;24365;48.446;8.850;2023-02-11T05:10:44;-4.40;70.00
38606;DHT22;24365;48.446;8.850;2023-02-11T05:15:45;-4.40;69.90
38606;DHT22;24365;48.446;8.850;2023-02-11T05:20:45;-4.30;69.80
38606;DHT22;24365;48.446;8.850;2023-02-11T05:25:46;-4.30;70.30
38606;DHT22;24365;48.446;8.850;2023-02-11T05:30:47;-4.40;70.10
38606;DHT22;24365;48.446;8.850;2023-02-11T05:35:48;-4.50;72.30
38606;DHT22;24365;48.446;8.850;2023-02-11T05:40:48;-4.50;72.50
38606;DHT22;24365;48.446;8.850;2023-02-11T05:45:49;-4.40;72.10
38606;DHT22;24365;48.446;8.850;2023-02-11T05:50:50;-4.40;74.20
38606;DHT22;24365;48.446;8.850;2023-02-11T05:55:51;-4.40;73.70
38606;DHT22;24365;48.446;8.850;2023-02-11T06:00:51;-4.30;73.80
38606;DHT22;24365;48.446;8.850;2023-02-11T06:05:52;-4.30;75.60
38606;DHT22;24365;48.446;8.850;2023-02-11T06:10:53;-4.20;75.90
38606;DHT22;24365;48.446;8.850;2023-02-11T06:15:54;-4.20;76.30
38606;DHT22;24365;48.446;8.850;2023-02-11T06:20:55;-4.00;75.20
38606;DHT22;24365;48.446;8.850;2023-02-11T06:25:59;-4.00;75.40
38606;DHT22;24365;48.446;8.850;2023-02-11T06:31:04;-4.00;74.80
38606;DHT22;24365;48.446;8.850;2023-02-11T06:36:13;-3.90;75.80
38606;DHT22;24365;48.446;8.850;2023-02-11T06:41:15;-3.80;77.70
38606;DHT22;24365;48.446;8.850;2023-02-11T06:46:16;-3.80;77.40
38606;DHT22;24365;48.446;8.850;2023-02-11T06:51:17;-3.70;77.40
38606;DHT22;24365;48.446;8.850;2023-02-11T06:56:18;-3.70;78.40
38606;DHT22;24365;48.446;8.850;2023-02-11T07:01:20;-3.80;78.80
38606;DHT22;24365;48.446;8.850;2023-02-11T07:06:21;-3.70;80.20
38606;DHT22;24365;48.446;8.850;2023-02-11T07:11:23;-3.50;80.40
38606;DHT22;24365;48.446;8.850;2023-02-11T07:16:24;-3.50;81.50
38606;DHT22;24365;48.446;8.850;2023-02-11T07:21:26;-3.50;82.20
38606;DHT22;24365;48.446;8.850;2023-02-11T07:26:27;-3.40;83.20
38606;DHT22;24365;48.446;8.850;2023-02-11T07:31:28;-3.30;83.70
38606;DHT22;24365;48.446;8.850;2023-02-11T07:36:30;-3.30;83.60
38606;DHT22;24365;48.446;8.850;2023-02-11T07:41:31;-3.20;84.00
38606;DHT22;24365;48.446;8.850;2023-02-11T07:46:33;-3.10;84.80
38606;DHT22;24365;48.446;8.850;2023-02-11T07:51:35;-3.00;84.80
38606;DHT22;24365;48.446;8.850;2023-02-11T07:56:35;-2.90;83.20
38606;DHT22;24365;48.446;8.850;2023-02-11T08:01:36;-2.80;83.20
38606;DHT22;24365;48.446;8.850;2023-02-11T08:06:39;-2.80;83.60
38606;DHT22;24365;48.446;8.850;2023-02-11T08:11:41;-2.70;83.80
38606;DHT22;24365;48.446;8.850;2023-02-11T08:16:42;-2.50;84.20
38606;DHT22;24365;48.446;8.850;2023-02-11T08:21:42;-2.30;85.50
38606;DHT22;24365;48.446;8.850;2023-02-11T08:26:43;-2.20;83.00
38606;DHT22;24365;48.446;8.850;2023-02-11T08:31:45;-2.10;82.40
38606;DHT22;24365;48.446;8.850;2023-02-11T08:36:46;-2.00;82.80
38606;DHT22;24365;48.446;8.850;2023-02-11T08:41:48;-2.00;82.00
38606;DHT22;24365;48.446;8.850;2023-02-11T08:46:49;-1.80;81.20
38606;DHT22;24365;48.446;8.850;2023-02-11T08:51:50;-1.60;80.80
38606;DHT22;24365;48.446;8.850;2023-02-11T08:56:51;-1.40;80.80
38606;DHT22;24365;48.446;8.850;2023-02-11T09:01:52;-1.20;79.20
38606;DHT22;24365;48.446;8.850;2023-02-11T09:06:52;-1.00;77.10
38606;DHT22;24365;48.446;8.850;2023-02-11T09:11:53;-0.70;75.80
38606;DHT22;24365;48.446;8.850;2023-02-11T09:16:56;-0.30;74.80
38606;DHT22;24365;48.446;8.850;2023-02-11T09:21:58;0.10;72.80
38606;DHT22;24365;48.446;8.850;2023-02-11T09:26:58;0.30;70.90
38606;DHT22;24365;48.446;8.850;2023-02-11T09:31:59;0.40;70.20
38606;DHT22;24365;48.446;8.850;2023-02-11T09:37:00;0.30;70.80
38606;DHT22;24365;48.446;8.850;2023-02-11T09:47:28;0.40;71.60
38606;DHT22;24365;48.446;8.850;2023-02-11T09:52:39;0.60;69.90
38606;DHT22;24365;48.446;8.850;2023-02-11T09:57:43;1.00;70.30
38606;DHT22;24365;48.446;8.850;2023-02-11T10:23:38;2.40;63.40
38606;DHT22;24365;48.446;8.850;2023-02-11T10:28:47;2.70;61.10
38606;DHT22;24365;48.446;8.850;2023-02-11T10:34:31;2.90;62.10
38606;DHT22;24365;48.446;8.850;2023-02-11T10:39:14;3.10;61.30
38606;DHT22;24365;48.446;8.850;2023-02-11T10:49:41;3.60;60.60
38606;DHT22;24365;48.446;8.850;2023-02-11T10:54:56;4.00;59.90
38606;DHT22;24365;48.446;8.850;2023-02-11T10:59:58;4.30;58.30
38606;DHT22;24365;48.446;8.850;2023-02-11T11:05:05;4.70;57.70
38606;DHT22;24365;48.446;8.850;2023-02-11T11:15:27;5.00;56.50
38606;DHT22;24365;48.446;8.850;2023-02-11T11:20:29;5.20;55.30
38606;DHT22;24365;48.446;8.850;2023-02-11T11:25:32;5.40;52.80
38606;DHT22;24365;48.446;8.850;2023-02-11T11:30:40;5.70;52.90
38606;DHT22;24365;48.446;8.850;2023-02-11T11:35:42;5.80;51.60
38606;DHT22;24365;48.446;8.850;2023-02-11T11:40:43;6.00;50.40
38606;DHT22;24365;48.446;8.850;2023-02-11T11:45:54;6.20;49.80
38606;DHT22;24365;48.446;8.850;2023-02-11T11:56:00;6.70;47.50
38606;DHT22;24365;48.446;8.850;2023-02-11T12:57:53;8.80;42.90
38606;DHT22;24365;48.446;8.850;2023-02-11T13:02:58;9.00;42.10
38606;DHT22;24365;48.446;8.850;2023-02-11T13:08:13;9.00;41.80
38606;DHT22;24365;48.446;8.850;2023-02-11T13:13:20;9.00;41.70
38606;DHT22;24365;48.446;8.850;2023-02-11T13:18:30;9.20;41.30
38606;DHT22;24365;48.446;8.850;2023-02-11T13:23:39;9.20;40.40
38606;DHT22;24365;48.446;8.850;2023-02-11T13:28:47;9.40;40.50
38606;DHT22;24365;48.446;8.850;2023-02-11T13:33:51;9.60;39.50
38606;DHT22;24365;48.446;8.850;2023-02-11T13:39:02;9.90;39.60
38606;DHT22;24365;48.446;8.850;2023-02-11T13:49:14;9.90;36.50
38606;DHT22;24365;48.446;8.850;2023-02-11T13:54:36;10.10;37.20
38606;DHT22;24365;48.446;8.850;2023-02-11T14:05:25;10.00;36.90
38606;DHT22;24365;48.446;8.850;2023-02-11T14:21:15;9.40;38.20
38606;DHT22;24365;48.446;8.850;2023-02-11T14:31:21;8.90;40.60
38606;DHT22;24365;48.446;8.850;2023-02-11T14:41:44;8.70;42.00
38606;DHT22;24365;48.446;8.850;2023-02-11T14:46:47;8.60;41.90
38606;DHT22;24365;48.446;8.850;2023-02-11T14:51:49;8.40;42.50
38606;DHT22;24365;48.446;8.850;2023-02-11T15:02:22;8.30;42.50
38606;DHT22;24365;48.446;8.850;2023-02-11T15:07:23;8.30;43.00
38606;DHT22;24365;48.446;8.850;2023-02-11T15:12:25;8.30;43.10
38606;DHT22;24365;48.446;8.850;2023-02-11T15:17:27;8.20;43.00
38606;DHT22;24365;48.446;8.850;2023-02-11T15:22:29;8.20;43.80
38606;DHT22;24365;48.446;8.850;2023-02-11T15:27:39;8.20;44.40
38606;DHT22;24365;48.446;8.850;2023-02-11T15:32:42;8.10;43.90
38606;DHT22;24365;48.446;8.850;2023-02-11T15:37:44;8.10;44.00
38606;DHT22;24365;48.446;8.850;2023-02-11T15:42:52;8.10;43.80
38606;DHT22;24365;48.446;8.850;2023-02-11T15:47:54;8.00;43.70
38606;DHT22;24365;48.446;8.850;2023-02-11T15:52:56;7.80;44.70
38606;DHT22;24365;48.446;8.850;2023-02-11T15:58:01;7.70;46.10
38606;DHT22;24365;48.446;8.850;2023-02-11T16:03:02;7.30;46.50
38606;DHT22;24365;48.446;8.850;2023-02-11T16:08:22;7.00;47.70
38606;DHT22;24365;48.446;8.850;2023-02-11T16:13:24;6.80;48.30
38606;DHT22;24365;48.446;8.850;2023-02-11T16:18:38;6.70;48.90
38606;DHT22;24365;48.446;8.850;2023-02-11T16:23:39;6.60;49.40
38606;DHT22;24365;48.446;8.850;2023-02-11T16:28:41;6.10;50.10
38606;DHT22;24365;48.446;8.850;2023-02-11T16:33:42;5.80;51.80
38606;DHT22;24365;48.446;8.850;2023-02-11T16:38:43;5.60;52.00
38606;DHT22;24365;48.446;8.850;2023-02-11T16:43:43;5.30;53.30
38606;DHT22;24365;48.446;8.850;2023-02-11T16:48:44;5.30;54.20
38606;DHT22;24365;48.446;8.850;2023-02-11T16:53:45;5.00;54.40
38606;DHT22;24365;48.446;8.850;2023-02-11T16:58:45;4.80;56.00
38606;DHT22;24365;48.446;8.850;2023-02-11T17:03:46;4.80;55.90
38606;DHT22;24365;48.446;8.850;2023-02-11T17:08:47;4.70;56.20
38606;DHT22;24365;48.446;8.850;2023-02-11T17:13:48;4.50;56.70
38606;DHT22;24365;48.446;8.850;2023-02-11T17:18:49;4.20;57.80
38606;DHT22;24365;48.446;8.850;2023-02-11T17:23:50;4.20;58.70
38606;DHT22;24365;48.446;8.850;2023-02-11T17:28:50;4.10;58.70
38606;DHT22;24365;48.446;8.850;2023-02-11T17:33:51;3.90;59.20
38606;DHT22;24365;48.446;8.850;2023-02-11T17:38:53;3.70;60.50
38606;DHT22;24365;48.446;8.850;2023-02-11T17:43:56;3.60;61.50
38606;DHT22;24365;48.446;8.850;2023-02-11T17:48:57;3.50;61.80
38606;DHT22;24365;48.446;8.850;2023-02-11T17:54:00;3.40;61.30
38606;DHT22;24365;48.446;8.850;2023-02-11T17:59:01;3.40;61.70
38606;DHT22;24365;48.446;8.850;2023-02-11T18:04:03;3.20;61.60
38606;DHT22;24365;48.446;8.850;2023-02-11T18:09:04;3.20;61.30
38606;DHT22;24365;48.446;8.850;2023-02-11T18:14:04;3.10;61.90
38606;DHT22;24365;48.446;8.850;2023-02-11T18:19:07;2.90;62.80
38606;DHT22;24365;48.446;8.850;2023-02-11T18:24:08;2.70;63.80
38606;DHT22;24365;48.446;8.850;2023-02-11T18:29:10;2.60;64.00
38606;DHT22;24365;48.446;8.850;2023-02-11T18:34:11;2.50;64.90
38606;DHT22;24365;48.446;8.850;2023-02-11T18:39:12;2.50;65.20
38606;DHT22;24365;48.446;8.850;2023-02-11T18:44:14;2.50;64.90
38606;DHT22;24365;48.446;8.850;2023-02-11T18:49:20;2.50;65.30
38606;DHT22;24365;48.446;8.850;2023-02-11T18:54:21;2.40;65.90
38606;DHT22;24365;48.446;8.850;2023-02-11T18:59:21;2.30;65.40
38606;DHT22;24365;48.446;8.850;2023-02-11T19:04:22;2.10;65.90
38606;DHT22;24365;48.446;8.850;2023-02-11T19:09:23;2.00;66.10
38606;DHT22;24365;48.446;8.850;2023-02-11T19:14:25;2.00;66.80
38606;DHT22;24365;48.446;8.850;2023-02-11T19:19:29;1.90;66.60
38606;DHT22;24365;48.446;8.850;2023-02-11T19:24:30;1.90;66.70
38606;DHT22;24365;48.446;8.850;2023-02-11T19:29:31;1.80;66.80
38606;DHT22;24365;48.446;8.850;2023-02-11T19:34:33;1.70;66.90
38606;DHT22;24365;48.446;8.850;2023-02-11T19:39:40;1.70;67.10
38606;DHT22;24365;48.446;8.850;2023-02-11T19:44:41;1.70;66.90
38606;DHT22;24365;48.446;8.850;2023-02-11T19:49:42;1.70;66.90
38606;DHT22;24365;48.446;8.850;2023-02-11T19:54:43;1.60;66.50
38606;DHT22;24365;48.446;8.850;2023-02-11T19:59:43;1.50;67.20
38606;DHT22;24365;48.446;8.850;2023-02-11T20:04:44;1.50;67.40
38606;DHT22;24365;48.446;8.850;2023-02-11T20:09:45;1.50;67.40
38606;DHT22;24365;48.446;8.850;2023-02-11T20:14:46;1.40;67.40
38606;DHT22;24365;48.446;8.850;2023-02-11T20:19:47;1.30;68.10
38606;DHT22;24365;48.446;8.850;2023-02-11T20:24:47;1.30;68.70
38606;DHT22;24365;48.446;8.850;2023-02-11T20:29:48;1.40;68.90
38606;DHT22;24365;48.446;8.850;2023-02-11T20:34:49;1.30;68.80
38606;DHT22;24365;48.446;8.850;2023-02-11T20:39:49;1.30;69.00
38606;DHT22;24365;48.446;8.850;2023-02-11T20:44:50;1.30;69.30
38606;DHT22;24365;48.446;8.850;2023-02-11T20:49:53;1.30;69.60
38606;DHT22;24365;48.446;8.850;2023-02-11T20:54:55;1.30;70.80
38606;DHT22;24365;48.446;8.850;2023-02-11T20:59:56;1.20;71.80
38606;DHT22;24365;48.446;8.850;2023-02-11T21:04:57;1.20;73.10
38606;DHT22;24365;48.446;8.850;2023-02-11T21:09:57;1.30;73.60
38606;DHT22;24365;48.446;8.850;2023-02-11T21:14:58;1.30;73.80
38606;DHT22;24365;48.446;8.850;2023-02-11T21:19:59;1.30;74.40
38606;DHT22;24365;48.446;8.850;2023-02-11T21:24:59;1.40;73.30
38606;DHT22;24365;48.446;8.850;2023-02-11T21:30:00;1.50;73.10
38606;DHT22;24365;48.446;8.850;2023-02-11T21:35:01;1.40;74.20
38606;DHT22;24365;48.446;8.850;2023-02-11T21:40:02;1.30;74.60
38606;DHT22;24365;48.446;8.850;2023-02-11T21:45:02;1.40;74.30
38606;DHT22;24365;48.446;8.850;2023-02-11T21:50:03;1.50;73.40
38606;DHT22;24365;48.446;8.850;2023-02-11T21:55:04;1.50;72.80
38606;DHT22;24365;48.446;8.850;2023-02-11T22:00:05;1.60;72.80
38606;DHT22;24365;48.446;8.850;2023-02-11T22:05:07;1.60;72.10
38606;DHT22;24365;48.446;8.850;2023-02-11T22:10:08;1.40;72.50
38606;DHT22;24365;48.446;8.850;2023-02-11T22:15:09;1.30;74.10
38606;DHT22;24365;48.446;8.850;2023-02-11T22:20:10;1.30;73.40
38606;DHT22;24365;48.446;8.850;2023-02-11T22:25:11;1.30;74.10
38606;DHT22;24365;48.446;8.850;2023-02-11T22:30:12;1.30;74.20
38606;DHT22;24365;48.446;8.850;2023-02-11T22:35:13;1.30;74.80
38606;DHT22;24365;48.446;8.850;2023-02-11T22:40:14;1.20;75.70
38606;DHT22;24365;48.446;8.850;2023-02-11T22:45:15;1.30;75.70
38606;DHT22;24365;48.446;8.850;2023-02-11T22:50:16;1.30;76.10
38606;DHT22;24365;48.446;8.850;2023-02-11T22:55:17;1.20;76.10
38606;DHT22;24365;48.446;8.850;2023-02-11T23:00:21;1.30;75.70
38606;DHT22;24365;48.446;8.850;2023-02-11T23:05:23;1.20;76.10
38606;DHT22;24365;48.446;8.850;2023-02-11T23:10:24;1.30;76.00
38606;DHT22;24365;48.446;8.850;2023-02-11T23:15:24;1.30;76.80
38606;DHT22;24365;48.446;8.850;2023-02-11T23:20:25;1.20;75.80
38606;DHT22;24365;48.446;8.850;2023-02-11T23:25:26;1.30;76.40
38606;DHT22;24365;48.446;8.850;2023-02-11T23:30:27;1.20;75.80
38606;DHT22;24365;48.446;8.850;2023-02-11T23:35:27;1.20;76.50
38606;DHT22;24365;48.446;8.850;2023-02-11T23:40:28;1.20;77.00
38606;DHT22;24365;48.446;8.850;2023-02-11T23:45:29;1.30;77.10
38606;DHT22;24365;48.446;8.850;2023-02-11T23:50:29;1.20;77.30
38606;DHT22;24365;48.446;8.850;2023-02-11T23:55:30;1.20;77.50
